Minerva Libra — SVAA7 — position and weather

sailwx.info

Track history (hours):
 
Tides and Currents Weather Stations Pressure Air Temp Water Temp Dewpoint Dewpoint Depression Visibility Wind Speed Wind Dir Waves Ship Positions

Minerva Libra

Last reported at 2016-Aug-29 12:31 UTC. Time now 2016-Sep-28 20:35 UTC.
Position N 40°56' E 028°60'.
Warning: this ship's position is 30 days out of date.

Length 250 m; draft 8 m.

Type: Tanker. MMSI: 240766000.

Date/timePositionNaut miles runAvg speedWind from/ knotsBaromVisibWave heightAir tempDewpointWater temp
2016-Aug-29 12:31N 40°56' E 028°60'7 7.0
2016-Aug-29 11:33N 40°49' E 028°59'2 2.2
2016-Aug-29 10:33N 40°48' E 028°57'5 3.9
2016-Aug-29 09:18N 40°45' E 028°52'0 0.4
2016-Aug-29 08:28N 40°46' E 028°52'1 0.5
2016-Aug-29 06:18N 40°47' E 028°52'0 0.5
2016-Aug-29 05:29N 40°47' E 028°53'0 0.5
2016-Aug-29 04:33N 40°47' E 028°53'0 0.5
2016-Aug-29 03:32N 40°48' E 028°53'1 0.5
2016-Aug-29 02:24N 40°48' E 028°54'0 0.4
2016-Aug-29 01:32N 40°49' E 028°54'4 3.5
2016-Aug-29 00:29N 40°49' E 028°49'280 7.4
2016-Aug-27 10:31N 37°44' E 024°18'18 8.8
2016-Aug-27 08:31N 37°36' E 023°58'9 9.6
2016-Aug-27 07:33N 37°38' E 023°47'8 8.6
2016-Aug-27 06:33N 37°44' E 023°40'10 5.0
2016-Aug-27 04:33N 37°52' E 023°31'0 0.0
2016-Aug-27 03:33N 37°52' E 023°31'0 0.0
2016-Aug-27 02:33N 37°52' E 023°31'0 0.0
2016-Aug-27 01:33N 37°52' E 023°31'0 0.0
2016-Aug-27 00:33N 37°52' E 023°31'0 0.0
2016-Aug-26 23:33N 37°52' E 023°31'0 0.0
2016-Aug-26 22:33N 37°52' E 023°31'0 0.0
2016-Aug-26 21:33N 37°52' E 023°31'0 0.0
2016-Aug-26 20:33N 37°52' E 023°31'0 0.0
2016-Aug-26 19:33N 37°52' E 023°31'0 0.0
2016-Aug-26 18:33N 37°52' E 023°31'0 0.0
2016-Aug-26 17:33N 37°52' E 023°31'0 0.0
2016-Aug-26 16:33N 37°52' E 023°31'0 0.0
2016-Aug-26 15:33N 37°52' E 023°31'0 0.0
2016-Aug-26 14:33N 37°52' E 023°31'0 0.0
2016-Aug-26 13:33N 37°52' E 023°31'0 0.0
2016-Aug-26 12:33N 37°52' E 023°31'0 0.0
2016-Aug-26 11:33N 37°52' E 023°31'0 0.0
2016-Aug-26 10:33N 37°52' E 023°31'0 0.0
2016-Aug-26 09:33N 37°52' E 023°31'0 0.0
2016-Aug-26 08:33N 37°52' E 023°31'0 0.0
2016-Aug-26 07:34N 37°52' E 023°31'0 0.0
2016-Aug-26 06:33N 37°52' E 023°31'0 0.0
2016-Aug-26 04:33N 37°52' E 023°31'0 0.0
2016-Aug-26 03:33N 37°52' E 023°31'0 0.0
2016-Aug-26 02:33N 37°52' E 023°31'0 0.0
2016-Aug-26 01:33N 37°52' E 023°31'0 0.0
2016-Aug-26 00:33N 37°52' E 023°31'0 0.1
2016-Aug-25 23:33N 37°52' E 023°31'0 0.0
2016-Aug-25 22:33N 37°52' E 023°31'0 0.0
2016-Aug-25 21:33N 37°52' E 023°31'0 0.1
2016-Aug-25 20:33N 37°52' E 023°31'0 0.0
2016-Aug-25 19:33N 37°52' E 023°31'0 0.0
2016-Aug-25 18:33N 37°52' E 023°31'0 0.0
2016-Aug-25 17:33N 37°52' E 023°31'0 0.1
2016-Aug-25 16:33N 37°52' E 023°31'0 0.1
2016-Aug-25 15:33N 37°52' E 023°31'0 0.0
2016-Aug-25 14:33N 37°52' E 023°31'0 0.0
2016-Aug-25 13:33N 37°52' E 023°31'0 0.1
2016-Aug-25 12:33N 37°52' E 023°31'0 0.0
2016-Aug-25 11:33N 37°52' E 023°31'0 0.1
2016-Aug-25 10:33N 37°52' E 023°31'0 0.0
2016-Aug-25 09:33N 37°52' E 023°31'0 0.0
2016-Aug-25 08:33N 37°52' E 023°31'0 0.0
2016-Aug-25 07:33N 37°52' E 023°31'0 0.0
2016-Aug-25 06:33N 37°52' E 023°31'0 0.0
2016-Aug-25 04:33N 37°52' E 023°31'0 0.0
2016-Aug-25 03:33N 37°52' E 023°31'0 0.0
2016-Aug-25 02:34N 37°52' E 023°31'0 0.0
2016-Aug-25 01:33N 37°52' E 023°31'0 0.0
2016-Aug-25 00:33N 37°52' E 023°31'0 0.0
2016-Aug-24 23:33N 37°52' E 023°31'0 0.0
2016-Aug-24 22:33N 37°52' E 023°31'0 0.0
2016-Aug-24 21:33N 37°52' E 023°31'0 0.0
2016-Aug-24 20:33N 37°52' E 023°31'0 0.0
2016-Aug-24 19:33N 37°52' E 023°31'0 0.0
2016-Aug-24 18:33N 37°52' E 023°31'0 0.0
2016-Aug-24 17:33N 37°52' E 023°31'0 0.0
2016-Aug-24 16:33N 37°52' E 023°31'0 0.0
2016-Aug-24 15:33N 37°52' E 023°31'0 0.0
2016-Aug-24 14:33N 37°52' E 023°31'0 0.0
2016-Aug-24 13:33N 37°52' E 023°31'0 0.0
2016-Aug-24 12:33N 37°52' E 023°31'0 0.0
2016-Aug-24 11:33N 37°52' E 023°31'0 0.0
2016-Aug-24 10:34N 37°52' E 023°31'0 0.0
2016-Aug-24 09:33N 37°52' E 023°31'0 0.0
2016-Aug-24 08:32N 37°52' E 023°31'0 0.0
2016-Aug-24 07:33N 37°52' E 023°31'0 0.0
2016-Aug-24 06:33N 37°52' E 023°31'0 0.0
2016-Aug-24 04:33N 37°52' E 023°31'0 0.1
2016-Aug-24 03:34N 37°52' E 023°31'0 0.2
2016-Aug-24 02:34N 37°52' E 023°32'4 4.0
2016-Aug-24 01:34N 37°51' E 023°37'5 5.1
2016-Aug-24 00:34N 37°47' E 023°41'10 9.9
2016-Aug-23 23:34N 37°38' E 023°46'9 9.2
2016-Aug-23 22:33N 37°29' E 023°49'1111.1
2016-Aug-23 21:33N 37°18' E 023°52'46 9.1
2016-Aug-23 16:29N 36°34' E 023°38'1511.2
2016-Aug-23 15:10N 36°27' E 023°22'171 5.7
2016-Aug-22 09:19N 37°52' E 020°15'7 9.2
2016-Aug-22 08:33N 37°58' E 020°12'315 9.0
2016-Aug-20 21:33N 42°13' E 016°10'9 9.5
2016-Aug-20 20:33N 42°20' E 016°01'9 9.4
2016-Aug-20 19:33N 42°27' E 015°52'9 9.3
2016-Aug-20 18:33N 42°33' E 015°44'10 9.2
2016-Aug-20 17:31N 42°41' E 015°36'9 9.4
2016-Aug-20 16:33N 42°48' E 015°29'9 9.3
2016-Aug-20 15:33N 42°55' E 015°20'1010.1
2016-Aug-20 14:33N 43°03' E 015°11'107 8.9
2016-Aug-20 02:33N 44°27' E 013°40'49 9.0
2016-Aug-19 21:03N 45°09' E 013°04'4 8.8
2016-Aug-19 20:33N 45°14' E 013°03'9 8.5
2016-Aug-19 19:32N 45°22' E 013°01'9 9.3
2016-Aug-19 18:33N 45°29' E 013°10'19 8.7
2016-Aug-19 16:20N 45°38' E 013°34'  
Track history (hours):
 
Tides and Currents Weather Stations Pressure Air Temp Water Temp Dewpoint Dewpoint Depression Visibility Wind Speed Wind Dir Waves Ship Positions

Minerva Libra

Last reported at 2016-Aug-29 12:31 UTC. Time now 2016-Sep-28 20:35 UTC.
Position N 40°56' E 028°60'.
Warning: this ship's position is 30 days out of date.

Length 250 m; draft 8 m.

Type: Tanker. MMSI: 240766000.

Date/timePositionNaut miles runAvg speedWind from/ knotsBaromVisibWave heightAir tempDewpointWater temp
2016-Aug-29 12:31N 40°56' E 028°60'7 7.0
2016-Aug-29 11:33N 40°49' E 028°59'2 2.2
2016-Aug-29 10:33N 40°48' E 028°57'5 3.9
2016-Aug-29 09:18N 40°45' E 028°52'0 0.4
2016-Aug-29 08:28N 40°46' E 028°52'1 0.5
2016-Aug-29 06:18N 40°47' E 028°52'0 0.5
2016-Aug-29 05:29N 40°47' E 028°53'0 0.5
2016-Aug-29 04:33N 40°47' E 028°53'0 0.5
2016-Aug-29 03:32N 40°48' E 028°53'1 0.5
2016-Aug-29 02:24N 40°48' E 028°54'0 0.4
2016-Aug-29 01:32N 40°49' E 028°54'4 3.5
2016-Aug-29 00:29N 40°49' E 028°49'280 7.4
2016-Aug-27 10:31N 37°44' E 024°18'18 8.8
2016-Aug-27 08:31N 37°36' E 023°58'9 9.6
2016-Aug-27 07:33N 37°38' E 023°47'8 8.6
2016-Aug-27 06:33N 37°44' E 023°40'10 5.0
2016-Aug-27 04:33N 37°52' E 023°31'0 0.0
2016-Aug-27 03:33N 37°52' E 023°31'0 0.0
2016-Aug-27 02:33N 37°52' E 023°31'0 0.0
2016-Aug-27 01:33N 37°52' E 023°31'0 0.0
2016-Aug-27 00:33N 37°52' E 023°31'0 0.0
2016-Aug-26 23:33N 37°52' E 023°31'0 0.0
2016-Aug-26 22:33N 37°52' E 023°31'0 0.0
2016-Aug-26 21:33N 37°52' E 023°31'0 0.0
2016-Aug-26 20:33N 37°52' E 023°31'0 0.0
2016-Aug-26 19:33N 37°52' E 023°31'0 0.0
2016-Aug-26 18:33N 37°52' E 023°31'0 0.0
2016-Aug-26 17:33N 37°52' E 023°31'0 0.0
2016-Aug-26 16:33N 37°52' E 023°31'0 0.0
2016-Aug-26 15:33N 37°52' E 023°31'0 0.0
2016-Aug-26 14:33N 37°52' E 023°31'0 0.0
2016-Aug-26 13:33N 37°52' E 023°31'0 0.0
2016-Aug-26 12:33N 37°52' E 023°31'0 0.0
2016-Aug-26 11:33N 37°52' E 023°31'0 0.0
2016-Aug-26 10:33N 37°52' E 023°31'0 0.0
2016-Aug-26 09:33N 37°52' E 023°31'0 0.0
2016-Aug-26 08:33N 37°52' E 023°31'0 0.0
2016-Aug-26 07:34N 37°52' E 023°31'0 0.0
2016-Aug-26 06:33N 37°52' E 023°31'0 0.0
2016-Aug-26 04:33N 37°52' E 023°31'0 0.0
2016-Aug-26 03:33N 37°52' E 023°31'0 0.0
2016-Aug-26 02:33N 37°52' E 023°31'0 0.0
2016-Aug-26 01:33N 37°52' E 023°31'0 0.0
2016-Aug-26 00:33N 37°52' E 023°31'0 0.1
2016-Aug-25 23:33N 37°52' E 023°31'0 0.0
2016-Aug-25 22:33N 37°52' E 023°31'0 0.0
2016-Aug-25 21:33N 37°52' E 023°31'0 0.1
2016-Aug-25 20:33N 37°52' E 023°31'0 0.0
2016-Aug-25 19:33N 37°52' E 023°31'0 0.0
2016-Aug-25 18:33N 37°52' E 023°31'0 0.0
2016-Aug-25 17:33N 37°52' E 023°31'0 0.1
2016-Aug-25 16:33N 37°52' E 023°31'0 0.1
2016-Aug-25 15:33N 37°52' E 023°31'0 0.0
2016-Aug-25 14:33N 37°52' E 023°31'0 0.0
2016-Aug-25 13:33N 37°52' E 023°31'0 0.1
2016-Aug-25 12:33N 37°52' E 023°31'0 0.0
2016-Aug-25 11:33N 37°52' E 023°31'0 0.1
2016-Aug-25 10:33N 37°52' E 023°31'0 0.0
2016-Aug-25 09:33N 37°52' E 023°31'0 0.0
2016-Aug-25 08:33N 37°52' E 023°31'0 0.0
2016-Aug-25 07:33N 37°52' E 023°31'0 0.0
2016-Aug-25 06:33N 37°52' E 023°31'0 0.0
2016-Aug-25 04:33N 37°52' E 023°31'0 0.0
2016-Aug-25 03:33N 37°52' E 023°31'0 0.0
2016-Aug-25 02:34N 37°52' E 023°31'0 0.0
2016-Aug-25 01:33N 37°52' E 023°31'0 0.0
2016-Aug-25 00:33N 37°52' E 023°31'0 0.0
2016-Aug-24 23:33N 37°52' E 023°31'0 0.0
2016-Aug-24 22:33N 37°52' E 023°31'0 0.0
2016-Aug-24 21:33N 37°52' E 023°31'0 0.0
2016-Aug-24 20:33N 37°52' E 023°31'0 0.0
2016-Aug-24 19:33N 37°52' E 023°31'0 0.0
2016-Aug-24 18:33N 37°52' E 023°31'0 0.0
2016-Aug-24 17:33N 37°52' E 023°31'0 0.0
2016-Aug-24 16:33N 37°52' E 023°31'0 0.0
2016-Aug-24 15:33N 37°52' E 023°31'0 0.0
2016-Aug-24 14:33N 37°52' E 023°31'0 0.0
2016-Aug-24 13:33N 37°52' E 023°31'0 0.0
2016-Aug-24 12:33N 37°52' E 023°31'0 0.0
2016-Aug-24 11:33N 37°52' E 023°31'0 0.0
2016-Aug-24 10:34N 37°52' E 023°31'0 0.0
2016-Aug-24 09:33N 37°52' E 023°31'0 0.0
2016-Aug-24 08:32N 37°52' E 023°31'0 0.0
2016-Aug-24 07:33N 37°52' E 023°31'0 0.0
2016-Aug-24 06:33N 37°52' E 023°31'0 0.0
2016-Aug-24 04:33N 37°52' E 023°31'0 0.1
2016-Aug-24 03:34N 37°52' E 023°31'0 0.2
2016-Aug-24 02:34N 37°52' E 023°32'4 4.0
2016-Aug-24 01:34N 37°51' E 023°37'5 5.1
2016-Aug-24 00:34N 37°47' E 023°41'10 9.9
2016-Aug-23 23:34N 37°38' E 023°46'9 9.2
2016-Aug-23 22:33N 37°29' E 023°49'1111.1
2016-Aug-23 21:33N 37°18' E 023°52'46 9.1
2016-Aug-23 16:29N 36°34' E 023°38'1511.2
2016-Aug-23 15:10N 36°27' E 023°22'171 5.7
2016-Aug-22 09:19N 37°52' E 020°15'7 9.2
2016-Aug-22 08:33N 37°58' E 020°12'315 9.0
2016-Aug-20 21:33N 42°13' E 016°10'9 9.5
2016-Aug-20 20:33N 42°20' E 016°01'9 9.4
2016-Aug-20 19:33N 42°27' E 015°52'9 9.3
2016-Aug-20 18:33N 42°33' E 015°44'10 9.2
2016-Aug-20 17:31N 42°41' E 015°36'9 9.4
2016-Aug-20 16:33N 42°48' E 015°29'9 9.3
2016-Aug-20 15:33N 42°55' E 015°20'1010.1
2016-Aug-20 14:33N 43°03' E 015°11'107 8.9
2016-Aug-20 02:33N 44°27' E 013°40'49 9.0
2016-Aug-19 21:03N 45°09' E 013°04'4 8.8
2016-Aug-19 20:33N 45°14' E 013°03'9 8.5
2016-Aug-19 19:32N 45°22' E 013°01'9 9.3
2016-Aug-19 18:33N 45°29' E 013°10'19 8.7
2016-Aug-19 16:20N 45°38' E 013°34'  

Dump ship's entire track history